Time;durP1;ratioP1;P1;durP2;ratioP2;P2;SDS_P1;SDS_P2;PMS_P1;PMS_P2;Temp;Humidity;BMP_temperature;BMP_pressure;BME280_temperature;BME280_humidity;BME280_pressure;Samples;Min_cycle;Max_cycle;Signal;HPM_P1;HPM_P2
2022/06/24 03:58:15;;;;;;;2.63;2.10;;;;;;;18.05;58.96;100317.75;6263239;28;20147;31
2022/06/24 04:01:20;;;;;;;2.50;2.22;;;;;;;18.25;57.65;100321.03;5289512;33;35131;-90
2022/06/24 04:04:25;;;;;;;2.42;2.22;;;;;;;18.36;57.55;100312.06;5291519;33;34179;-91
2022/06/24 04:07:28;;;;;;;2.40;2.20;;;;;;;18.50;56.88;100317.34;5294950;33;33936;-86
2022/06/24 04:10:31;;;;;;;2.45;2.25;;;;;;;18.61;55.68;100318.47;5293556;33;35064;-83
2022/06/24 04:13:33;;;;;;;2.00;1.90;;;;;;;18.73;55.04;100322.91;5289689;33;34108;-83
2022/06/24 04:16:36;;;;;;;2.87;2.65;;;;;;;18.89;54.22;100318.66;5289290;33;34837;-84
2022/06/24 04:19:39;;;;;;;2.47;2.28;;;;;;;19.08;53.73;100321.31;5289508;33;35060;-83
2022/06/24 04:22:43;;;;;;;2.50;2.30;;;;;;;19.16;53.40;100319.09;5288917;33;34942;-83
2022/06/24 04:29:51;;;;;;;2.08;1.98;;;;;;;19.34;52.77;100317.31;5289951;33;34099;-83
2022/06/24 04:32:54;;;;;;;3.10;2.30;;;;;;;19.44;51.96;100323.81;5289614;33;35076;-83
2022/06/24 04:35:57;;;;;;;2.28;2.12;;;;;;;19.57;51.96;100327.38;5289471;33;34316;-84
2022/06/24 04:38:59;;;;;;;3.55;2.17;;;;;;;19.72;51.31;100316.03;5289434;33;34150;-85
2022/06/24 04:42:02;;;;;;;2.42;2.20;;;;;;;19.88;50.82;100318.00;5289218;33;33749;-85
2022/06/24 04:45:06;;;;;;;2.60;2.40;;;;;;;19.98;50.27;100318.22;5282046;33;33743;-87
2022/06/24 04:48:10;;;;;;;3.15;2.40;;;;;;;20.13;50.24;100329.47;5289222;33;34330;-87
2022/06/24 04:51:12;;;;;;;4.45;2.25;;;;;;;20.25;49.02;100334.06;5289554;33;34002;-87
2022/06/24 04:54:15;;;;;;;3.95;2.10;;;;;;;20.33;49.29;100325.50;5289877;33;34023;-90
2022/06/24 04:57:18;;;;;;;3.28;2.22;;;;;;;20.45;47.48;100325.44;5289491;33;34763;-83
2022/06/24 05:00:21;;;;;;;2.90;2.08;;;;;;;20.57;47.21;100326.25;5301430;33;34447;-83
2022/06/24 05:03:24;;;;;;;2.30;2.10;;;;;;;20.70;47.11;100330.56;5307104;33;33900;-85
2022/06/24 05:06:27;;;;;;;3.25;2.20;;;;;;;20.82;46.27;100328.59;5306591;33;35386;-85
2022/06/24 05:09:29;;;;;;;2.97;2.25;;;;;;;20.91;46.17;100324.38;5307499;33;34146;-83
2022/06/24 05:12:33;;;;;;;2.33;2.12;;;;;;;21.05;45.59;100316.69;5313664;33;33746;-83
2022/06/24 05:15:36;;;;;;;2.20;2.00;;;;;;;21.20;45.60;100325.13;5325605;33;34676;-83
2022/06/24 05:18:39;;;;;;;3.83;1.98;;;;;;;21.24;44.41;100326.31;5325045;33;35183;-83
2022/06/24 05:21:42;;;;;;;2.75;2.45;;;;;;;21.34;44.68;100324.81;5325011;33;33653;-83
2022/06/24 05:24:45;;;;;;;2.40;2.20;;;;;;;21.36;45.02;100326.25;5325164;33;34016;-83
2022/06/24 05:27:48;;;;;;;4.00;1.87;;;;;;;21.51;45.52;100326.47;5325054;33;33671;-82
2022/06/24 05:30:55;;;;;;;2.03;1.80;;;;;;;21.52;44.66;100325.37;5327020;33;33614;-82
2022/06/24 05:33:58;;;;;;;2.35;1.80;;;;;;;21.73;44.95;100331.16;5328789;33;33958;-82
2022/06/24 05:37:02;;;;;;;2.20;2.00;;;;;;;21.77;43.65;100332.31;5329769;33;34184;-83
2022/06/24 05:40:06;;;;;;;2.22;1.90;;;;;;;21.88;44.44;100320.41;5329424;33;35005;-83
2022/06/24 05:43:10;;;;;;;3.08;1.98;;;;;;;21.98;44.25;100332.59;5327783;33;34305;-83
2022/06/24 05:46:13;;;;;;;2.30;2.10;;;;;;;22.10;43.51;100336.84;5329091;33;34024;-83
2022/06/24 05:49:16;;;;;;;3.33;1.80;;;;;;;22.19;42.87;100340.84;5334487;33;34192;-82
2022/06/24 05:55:02;;;;;;;3.30;2.05;;;;;;;22.19;42.69;100349.06;5328867;33;34420;-83
2022/06/24 05:55:43;;;;;;;2.20;2.00;;;;;;;22.34;43.19;100351.16;5327465;33;34455;-83
2022/06/24 05:58:46;;;;;;;2.37;2.03;;;;;;;22.28;42.37;100352.19;5328875;33;34045;-83
2022/06/24 06:01:49;;;;;;;1.77;1.67;;;;;;;22.43;43.15;100354.28;5326903;33;33895;-83
2022/06/24 06:04:52;;;;;;;2.00;1.80;;;;;;;22.50;42.32;100345.87;5313841;33;32422;-83
2022/06/24 06:07:55;;;;;;;2.05;1.85;;;;;;;22.60;42.21;100340.47;5326250;33;34168;-83
2022/06/24 06:10:58;;;;;;;2.25;2.05;;;;;;;22.68;42.85;100340.03;5326941;33;33993;-83
2022/06/24 06:14:00;;;;;;;2.35;1.65;;;;;;;22.75;41.83;100339.81;5326978;33;34167;-83
2022/06/24 06:17:03;;;;;;;1.98;1.50;;;;;;;22.86;41.18;100338.81;5326657;33;34844;-83
2022/06/24 06:20:07;;;;;;;2.90;1.65;;;;;;;23.02;40.49;100346.16;5326740;33;34872;-82
2022/06/24 06:23:11;;;;;;;1.92;1.77;;;;;;;23.29;40.79;100356.25;5326425;33;33902;-83
2022/06/24 06:26:14;;;;;;;1.83;1.73;;;;;;;23.30;39.64;100344.16;5326653;33;34891;-82
2022/06/24 06:29:17;;;;;;;1.98;1.67;;;;;;;23.32;40.20;100339.25;5313587;33;32452;-83
2022/06/24 06:32:19;;;;;;;1.52;1.42;;;;;;;23.34;39.79;100341.72;5327389;33;35454;-83
2022/06/24 06:35:23;;;;;;;1.55;1.25;;;;;;;23.60;39.34;100338.03;5326406;33;34066;-83
2022/06/24 06:38:25;;;;;;;1.52;1.42;;;;;;;23.79;38.66;100335.72;5331314;33;34750;-83
2022/06/24 06:41:28;;;;;;;3.08;2.20;;;;;;;23.96;38.40;100338.28;5330953;33;34114;-83
2022/06/24 06:44:36;;;;;;;2.75;2.17;;;;;;;24.07;37.57;100333.66;5326763;33;34174;-83
2022/06/24 06:47:39;;;;;;;1.77;1.50;;;;;;;23.98;37.69;100336.09;5326664;33;34070;-87
2022/06/24 06:50:41;;;;;;;1.73;1.60;;;;;;;24.26;38.98;100328.50;5326220;33;34753;-87
2022/06/24 06:53:44;;;;;;;1.90;1.80;;;;;;;24.32;37.79;100319.19;5327259;33;34013;-87
2022/06/24 06:56:47;;;;;;;2.05;1.85;;;;;;;24.36;37.72;100323.84;5327153;33;34256;-87
2022/06/24 06:59:51;;;;;;;1.62;1.42;;;;;;;24.51;38.03;100317.63;5326669;33;34014;-85
2022/06/24 07:02:53;;;;;;;3.03;1.60;;;;;;;24.76;36.05;100321.50;5326552;33;34185;-84
2022/06/24 07:05:56;;;;;;;1.52;1.42;;;;;;;24.90;35.48;100308.84;5326786;33;34842;-83
2022/06/24 07:08:59;;;;;;;1.85;1.70;;;;;;;25.06;34.64;100313.25;5327018;33;33933;-83
2022/06/24 07:12:02;;;;;;;1.30;1.20;;;;;;;25.15;34.70;100304.47;5326122;33;35461;-83
2022/06/24 07:15:06;;;;;;;2.70;1.55;;;;;;;25.30;33.89;100315.47;5326752;33;34103;-85
2022/06/24 07:18:10;;;;;;;2.47;1.48;;;;;;;25.42;33.83;100317.91;5326794;33;34025;-84
2022/06/24 07:21:13;;;;;;;2.08;1.60;;;;;;;25.52;33.52;100309.66;5327227;33;33889;-84
2022/06/24 07:24:16;;;;;;;1.70;1.60;;;;;;;25.63;33.10;100307.72;5326736;33;34193;-83
2022/06/24 07:27:18;;;;;;;3.05;1.60;;;;;;;25.74;33.22;100301.03;5327793;33;35546;-85
2022/06/24 07:30:22;;;;;;;1.65;1.45;;;;;;;25.92;32.92;100308.75;5326728;33;33572;-83
2022/06/24 07:33:25;;;;;;;6.97;1.52;;;;;;;25.96;33.62;100300.72;5326055;33;34272;-83
2022/06/24 07:36:28;;;;;;;2.50;1.62;;;;;;;26.12;33.22;100294.03;5325501;33;34908;-83
2022/06/24 07:39:31;;;;;;;1.30;1.27;;;;;;;26.36;32.59;100290.59;5326397;33;34359;-83
2022/06/24 07:42:35;;;;;;;1.42;1.35;;;;;;;26.56;31.94;100295.16;5326180;33;34068;-83
2022/06/24 07:45:39;;;;;;;2.50;1.33;;;;;;;26.63;31.76;100291.00;5326256;33;35490;-83
2022/06/24 07:48:42;;;;;;;1.80;1.40;;;;;;;26.80;31.30;100279.53;5326655;33;34220;-84
2022/06/24 07:51:44;;;;;;;1.60;1.50;;;;;;;26.82;30.46;100282.84;5327169;33;34007;-83
2022/06/24 07:56:56;;;;;;;5.03;1.95;;;;;;;26.71;30.36;100280.47;5313493;33;32363;-83
2022/06/24 07:58:10;;;;;;;1.50;1.40;;;;;;;26.88;30.27;100278.09;5327650;33;34555;-84
2022/06/24 08:01:13;;;;;;;2.05;1.40;;;;;;;26.81;30.23;100277.59;5335921;33;34193;-84
2022/06/24 08:04:16;;;;;;;2.60;1.20;;;;;;;27.13;30.66;100274.28;5338538;33;34359;-83
2022/06/24 08:07:19;;;;;;;1.20;1.10;;;;;;;26.89;30.80;100272.28;5336892;33;35412;-83
2022/06/24 08:10:22;;;;;;;1.23;1.12;;;;;;;26.97;29.96;100275.53;5324426;33;32520;-86
2022/06/24 08:13:25;;;;;;;1.40;1.30;;;;;;;27.02;29.87;100267.19;5334038;33;34114;-83
2022/06/24 08:16:28;;;;;;;2.45;1.20;;;;;;;26.96;30.04;100276.66;5327113;33;34426;-83
2022/06/24 08:19:31;;;;;;;1.55;1.30;;;;;;;27.03;30.58;100266.94;5325866;33;34596;-85
2022/06/24 08:22:34;;;;;;;6.40;1.75;;;;;;;27.19;29.99;100264.03;5325734;33;33914;-85
2022/06/24 08:25:37;;;;;;;1.60;1.50;;;;;;;27.44;29.52;100258.25;5327553;33;33985;-86
2022/06/24 08:28:40;;;;;;;1.50;1.30;;;;;;;27.61;28.16;100257.75;5327578;33;33900;-85
2022/06/24 08:31:43;;;;;;;5.05;1.12;;;;;;;27.81;29.03;100253.97;5327264;33;34890;-84
2022/06/24 08:34:46;;;;;;;1.67;1.58;;;;;;;27.79;29.98;100251.50;5313731;33;35442;-87
2022/06/24 08:38:09;;;;;;;2.28;1.50;;;;;;;27.63;29.32;100257.47;5326284;33;34852;-86
2022/06/24 08:41:15;;;;;;;1.40;1.30;;;;;;;27.75;28.92;100255.94;5325073;33;33948;-84
2022/06/24 08:44:17;;;;;;;1.40;1.33;;;;;;;28.01;28.88;100248.16;5325006;33;34935;-91
2022/06/24 08:47:20;;;;;;;1.30;1.20;;;;;;;27.92;28.71;100249.12;5326362;33;34051;-91
2022/06/24 08:50:29;;;;;;;3.30;1.25;;;;;;;28.06;28.55;100250.06;5327670;33;34963;-85
2022/06/24 08:53:34;;;;;;;1.48;1.37;;;;;;;28.21;28.11;100244.28;5327451;33;34896;-86
2022/06/24 08:56:37;;;;;;;1.23;1.20;;;;;;;28.31;28.11;100242.50;5327698;33;34120;-84
2022/06/24 08:59:42;;;;;;;1.65;1.23;;;;;;;28.71;28.24;100241.06;5327647;33;34733;-85
2022/06/24 09:02:46;;;;;;;3.97;1.27;;;;;;;29.02;28.00;100248.88;5327541;33;34792;-85
2022/06/24 09:05:49;;;;;;;1.55;1.45;;;;;;;29.16;27.13;100244.19;5327634;33;34029;-85
2022/06/24 09:08:53;;;;;;;3.55;1.45;;;;;;;29.02;27.13;100246.09;5328042;33;34777;-86
2022/06/24 09:11:57;;;;;;;1.10;1.02;;;;;;;29.12;27.02;100241.22;5336161;33;35541;-85
2022/06/24 09:15:04;;;;;;;1.35;1.25;;;;;;;29.22;27.50;100236.59;5331378;33;34658;-86
2022/06/24 09:18:08;;;;;;;1.33;1.23;;;;;;;29.08;26.16;100231.88;5333470;33;34232;-85
2022/06/24 09:21:24;;;;;;;2.90;1.30;;;;;;;29.04;26.62;100230.81;5331940;33;33982;-85
2022/06/24 09:24:51;;;;;;;1.48;1.37;;;;;;;29.34;26.95;100229.44;5327988;33;35443;-85
2022/06/24 09:27:53;;;;;;;2.65;1.50;;;;;;;29.60;26.41;100226.13;5328229;33;34158;-85
2022/06/24 09:31:07;;;;;;;3.08;1.30;;;;;;;29.49;26.28;100221.94;5327461;33;34337;-86
2022/06/24 09:34:17;;;;;;;1.58;1.48;;;;;;;29.68;26.66;100228.22;5327519;33;33966;-85
2022/06/24 09:37:41;;;;;;;1.40;1.30;;;;;;;29.87;25.90;100224.53;5327237;33;34864;-86
2022/06/24 09:40:43;;;;;;;1.20;1.10;;;;;;;29.94;25.75;100228.50;5327212;33;34759;-85
2022/06/24 09:43:46;;;;;;;1.10;1.00;;;;;;;30.26;25.27;100224.75;5314200;33;32396;-85
2022/06/24 09:47:03;;;;;;;1.50;1.40;;;;;;;29.98;26.17;100223.13;5327475;33;33985;-85
2022/06/24 09:50:07;;;;;;;1.60;1.12;;;;;;;29.70;25.98;100219.59;5327339;33;34090;-87
2022/06/24 09:53:12;;;;;;;1.20;1.10;;;;;;;29.81;25.80;100221.03;5326957;33;33936;-85
2022/06/24 09:56:15;;;;;;;1.20;1.15;;;;;;;30.10;25.14;100220.66;5327475;33;35580;-85
2022/06/24 10:02:43;;;;;;;1.30;1.23;;;;;;;30.13;24.83;100219.19;5327267;33;35476;-85
2022/06/24 10:05:52;;;;;;;1.65;1.55;;;;;;;30.39;25.14;100217.53;5327031;33;34220;-85
2022/06/24 10:08:58;;;;;;;1.35;1.20;;;;;;;30.35;25.12;100213.72;5330368;33;34180;-85
2022/06/24 10:12:11;;;;;;;1.12;1.02;;;;;;;30.34;24.76;100212.09;5313601;33;32719;-85
2022/06/24 10:15:14;;;;;;;2.90;1.37;;;;;;;30.53;26.04;100211.88;5327065;33;34023;-85
2022/06/24 10:18:21;;;;;;;1.30;1.20;;;;;;;30.66;24.56;100199.91;5326948;33;34083;-85
2022/06/24 10:21:24;;;;;;;2.58;1.40;;;;;;;30.94;24.48;100200.56;5327271;33;34047;-85
2022/06/24 10:24:38;;;;;;;1.83;1.30;;;;;;;30.46;25.06;100197.63;5327149;33;33892;-85
2022/06/24 10:27:59;;;;;;;1.10;1.10;;;;;;;30.72;24.74;100192.25;5327079;33;34033;-85
2022/06/24 10:31:02;;;;;;;1.17;1.17;;;;;;;31.11;24.30;100190.69;5327674;33;34520;-84
2022/06/24 10:34:05;;;;;;;2.25;1.58;;;;;;;31.16;24.14;100188.59;5328830;33;34122;-85
2022/06/24 10:37:12;;;;;;;1.17;1.10;;;;;;;31.21;22.99;100179.28;5328569;33;34092;-86
2022/06/24 10:40:24;;;;;;;1.70;1.60;;;;;;;31.43;23.17;100180.38;5329773;33;34010;-85
2022/06/24 10:43:37;;;;;;;1.42;1.20;;;;;;;31.79;23.65;100164.22;5328214;33;34778;-86
2022/06/24 10:46:39;;;;;;;1.33;1.02;;;;;;;32.16;23.02;100164.78;5330139;33;34650;-85
2022/06/24 10:49:51;;;;;;;2.17;1.25;;;;;;;32.62;21.69;100166.09;5314825;33;33902;-85
2022/06/24 10:52:56;;;;;;;2.47;1.20;;;;;;;33.02;21.54;100168.59;5327867;33;34140;-89
2022/06/24 10:55:59;;;;;;;1.40;1.30;;;;;;;33.60;20.66;100150.28;5334314;33;32990;-87
2022/06/24 10:59:01;;;;;;;1.20;1.20;;;;;;;33.31;20.96;100147.47;5330957;33;34266;-85
2022/06/24 11:02:05;;;;;;;1.40;1.33;;;;;;;33.67;20.96;100149.75;5327729;33;33898;-84
2022/06/24 11:05:14;;;;;;;1.98;1.75;;;;;;;34.07;21.10;100146.50;5329514;33;35481;-84
2022/06/24 11:08:23;;;;;;;1.83;1.17;;;;;;;34.39;20.89;100153.28;5329332;33;34168;-84
2022/06/24 11:11:29;;;;;;;1.50;1.40;;;;;;;34.62;20.05;100147.34;5332684;33;34963;-85
2022/06/24 11:14:33;;;;;;;0.95;0.95;;;;;;;34.98;19.57;100136.22;5336233;33;34126;-84
2022/06/24 11:17:41;;;;;;;1.40;1.15;;;;;;;35.93;18.89;100135.25;5337514;33;34398;-84
2022/06/24 11:20:55;;;;;;;1.60;1.10;;;;;;;36.36;18.62;100131.72;5315136;33;32548;-85
2022/06/24 11:23:59;;;;;;;1.45;1.35;;;;;;;36.58;19.20;100119.13;5320411;33;32741;-84
2022/06/24 11:27:04;;;;;;;1.83;1.45;;;;;;;36.81;17.49;100110.09;5333104;33;35187;-85
2022/06/24 11:30:09;;;;;;;1.40;1.20;;;;;;;37.37;17.25;100102.25;5330433;33;34497;-85
2022/06/24 11:33:19;;;;;;;3.90;1.42;;;;;;;38.13;16.77;100110.38;5327811;33;34926;-85
2022/06/24 11:36:23;;;;;;;1.80;0.95;;;;;;;38.92;15.85;100109.88;5327261;33;34068;-84
2022/06/24 11:39:26;;;;;;;1.20;1.12;;;;;;;39.05;15.88;100110.47;5326802;33;34400;-84
2022/06/24 11:42:28;;;;;;;1.00;1.00;;;;;;;39.48;16.52;100111.16;5328178;33;34109;-84
2022/06/24 11:45:43;;;;;;;2.35;1.40;;;;;;;39.55;15.22;100105.66;5328094;33;34117;-84
2022/06/24 11:48:46;;;;;;;0.82;0.82;;;;;;;40.43;14.67;100097.91;5338779;33;35354;-84
2022/06/24 11:51:50;;;;;;;1.27;1.17;;;;;;;40.31;14.75;100077.22;5332200;33;34369;-84
2022/06/24 11:54:52;;;;;;;1.25;0.93;;;;;;;38.61;15.60;100085.56;5318222;33;33868;-83
2022/06/24 11:58:00;;;;;;;1.35;1.10;;;;;;;37.60;16.53;100085.56;5331082;33;34957;-83
2022/06/24 12:01:03;;;;;;;2.65;1.27;;;;;;;38.68;15.94;100074.47;5330044;33;34895;-83
2022/06/24 12:04:08;;;;;;;1.75;1.20;;;;;;;39.67;16.01;100076.41;5329611;33;34356;-84
2022/06/24 12:07:11;;;;;;;1.52;1.10;;;;;;;40.96;13.96;100084.28;5327973;33;34355;-84
2022/06/24 12:10:14;;;;;;;2.05;1.00;;;;;;;41.89;14.25;100075.59;5330056;33;35506;-85
2022/06/24 12:13:30;;;;;;;2.87;1.00;;;;;;;42.12;13.11;100061.94;5330843;33;33846;-85
2022/06/24 12:17:08;;;;;;;4.57;1.20;;;;;;;42.89;12.95;100066.50;5326812;33;34986;-89
2022/06/24 12:20:11;;;;;;;1.15;1.08;;;;;;;42.84;12.40;100066.91;5327397;33;34167;-85
2022/06/24 12:23:19;;;;;;;1.45;1.23;;;;;;;42.07;12.98;100064.34;5315360;33;33174;-85
2022/06/24 12:26:24;;;;;;;2.00;1.30;;;;;;;43.29;12.43;100064.41;5336623;33;34275;-84
2022/06/24 12:29:30;;;;;;;1.87;1.58;;;;;;;43.94;11.50;100048.00;5333189;33;34071;-84
2022/06/24 12:32:55;;;;;;;5.72;1.73;;;;;;;43.80;11.77;100055.38;5328593;33;33828;-85
2022/06/24 12:36:10;;;;;;;4.83;1.50;;;;;;;43.02;11.96;100045.03;5327789;33;35471;-84
2022/06/24 12:39:13;;;;;;;3.47;2.20;;;;;;;43.46;12.31;100043.72;5327995;33;34053;-85
2022/06/24 12:42:19;;;;;;;2.40;2.20;;;;;;;42.90;12.22;100042.62;5328516;33;34053;-85
2022/06/24 12:45:25;;;;;;;2.62;1.77;;;;;;;43.27;11.69;100045.00;5328416;33;34328;-85
2022/06/24 12:51:49;;;;;;;1.60;1.50;;;;;;;44.11;11.67;100027.25;5328322;33;33885;-88
2022/06/24 12:54:52;;;;;;;3.97;1.85;;;;;;;44.42;11.47;100027.47;5318106;33;33321;-87
2022/06/24 12:58:01;;;;;;;2.17;1.98;;;;;;;44.25;11.39;100017.81;5316750;33;32586;-88
2022/06/24 13:01:04;;;;;;;3.00;2.15;;;;;;;45.42;10.86;100012.28;5319330;33;33750;-88
2022/06/24 13:04:07;;;;;;;2.10;2.00;;;;;;;45.90;10.00;100014.16;5332046;33;34022;-88
2022/06/24 13:07:10;;;;;;;1.70;1.60;;;;;;;45.08;10.77;100015.91;5324923;33;125956;-88
2022/06/24 13:10:14;;;;;;;1.62;1.52;;;;;;;45.07;10.98;100010.66;5317406;33;33897;-88
2022/06/24 13:13:17;;;;;;;1.25;1.17;;;;;;;45.11;10.96;100003.69;5314665;33;32560;-92
2022/06/24 13:16:20;;;;;;;1.17;1.00;;;;;;;45.66;10.29;99981.94;5315978;33;32377;-91
2022/06/24 13:19:23;;;;;;;1.10;1.10;;;;;;;45.19;10.62;99978.84;5327588;33;34112;-92
2022/06/24 13:22:25;;;;;;;2.03;1.00;;;;;;;45.22;10.47;99973.13;5328039;33;34565;-92
2022/06/24 13:25:28;;;;;;;1.10;1.00;;;;;;;45.66;10.54;99968.53;5328002;33;34294;-88
2022/06/24 13:28:33;;;;;;;1.95;1.12;;;;;;;45.19;10.37;99968.28;5328207;33;35017;-89
2022/06/24 13:31:36;;;;;;;1.00;1.00;;;;;;;45.69;10.18;99959.16;5327906;33;34787;-89
2022/06/24 13:34:40;;;;;;;3.17;1.30;;;;;;;45.90;10.18;99954.41;5328143;33;34136;-88
2022/06/24 13:37:42;;;;;;;1.02;0.90;;;;;;;45.65;9.97;99964.06;5314520;33;32860;-88
2022/06/24 13:40:49;;;;;;;1.55;0.80;;;;;;;45.20;10.75;99954.91;5327626;33;35101;-89
2022/06/24 13:43:57;;;;;;;1.85;1.08;;;;;;;45.56;10.72;99960.94;5328075;33;34860;-89
2022/06/24 13:47:00;;;;;;;1.05;0.98;;;;;;;45.20;10.68;99954.91;5328198;33;33912;-89
2022/06/24 13:50:05;;;;;;;1.00;1.00;;;;;;;45.11;10.66;99961.06;5326921;33;34805;-88
2022/06/24 13:53:08;;;;;;;1.10;0.98;;;;;;;44.89;10.80;99962.53;5328454;33;34048;-89
2022/06/24 13:56:10;;;;;;;1.10;1.10;;;;;;;45.41;10.60;99954.63;5328303;33;35703;-88
2022/06/24 13:59:14;;;;;;;3.15;1.12;;;;;;;44.40;11.29;99950.41;5329071;33;35354;-88
2022/06/24 14:02:18;;;;;;;1.98;0.90;;;;;;;43.77;11.83;99953.28;5327197;33;35494;-88
2022/06/24 14:05:31;;;;;;;0.95;0.95;;;;;;;42.23;12.54;99947.97;5327378;33;33918;-88
2022/06/24 14:08:34;;;;;;;0.98;0.88;;;;;;;40.27;13.89;99940.16;5328408;33;35391;-88
2022/06/24 14:11:37;;;;;;;1.85;0.90;;;;;;;38.91;15.22;99932.94;5328885;33;34756;-87
2022/06/24 14:14:40;;;;;;;1.00;1.00;;;;;;;37.64;16.24;99948.78;5322400;33;32926;-87
2022/06/24 14:17:43;;;;;;;1.33;0.90;;;;;;;36.83;16.63;99953.41;5337512;33;36746;-87
2022/06/24 14:20:47;;;;;;;1.52;1.00;;;;;;;35.82;17.26;99948.03;5330197;33;35755;-87
2022/06/24 14:27:11;;;;;;;2.60;1.30;;;;;;;35.38;18.04;99953.56;5327758;33;34729;-87
2022/06/24 14:30:15;;;;;;;1.42;1.30;;;;;;;34.94;19.18;99952.63;5327399;33;34740;-87
2022/06/24 14:33:18;;;;;;;1.30;0.95;;;;;;;34.48;18.59;99935.97;5327561;33;34581;-87
2022/06/24 14:36:21;;;;;;;1.20;1.10;;;;;;;34.06;19.62;99943.75;5327767;33;35416;-87
2022/06/24 14:42:45;;;;;;;0.95;0.95;;;;;;;33.53;19.73;99931.47;5327954;33;34716;-87
2022/06/24 14:45:51;;;;;;;1.45;1.35;;;;;;;33.44;20.02;99925.94;5329939;33;34283;-87
2022/06/24 14:48:54;;;;;;;1.65;1.30;;;;;;;33.19;19.97;99922.19;5330052;33;33982;-87
2022/06/24 14:52:16;;;;;;;1.52;1.25;;;;;;;32.98;20.35;99922.19;5327761;33;34989;-87
2022/06/24 14:55:19;;;;;;;1.67;1.58;;;;;;;32.81;20.44;99922.31;5328062;33;34917;-87
2022/06/24 14:58:22;;;;;;;2.20;1.20;;;;;;;32.17;21.16;99906.56;5315268;33;33931;-87
2022/06/24 15:01:29;;;;;;;1.58;1.20;;;;;;;32.08;21.43;99901.00;5328430;33;34468;-87
2022/06/24 15:04:32;;;;;;;2.20;1.60;;;;;;;31.83;21.75;99909.09;5315215;33;32623;-87
2022/06/24 15:07:35;;;;;;;2.53;1.30;;;;;;;31.80;21.38;99900.59;5328284;33;34049;-87
2022/06/24 15:10:38;;;;;;;1.45;1.25;;;;;;;31.57;21.72;99905.56;5327223;33;33997;-87
2022/06/24 15:13:41;;;;;;;2.10;1.23;;;;;;;31.69;21.54;99914.06;5327055;33;34083;-87
2022/06/24 15:16:43;;;;;;;1.00;1.00;;;;;;;31.82;21.27;99903.84;5327125;33;34943;-87
2022/06/24 15:19:47;;;;;;;2.12;1.33;;;;;;;31.76;21.38;99911.56;5326905;33;34017;-87
2022/06/24 15:22:49;;;;;;;1.08;1.08;;;;;;;31.88;21.92;99908.09;5326717;33;33875;-86
2022/06/24 15:25:53;;;;;;;1.30;1.20;;;;;;;31.91;21.77;99895.50;5326916;33;33864;-87
2022/06/24 15:28:55;;;;;;;2.00;1.20;;;;;;;31.86;21.77;99893.72;5326665;33;34802;-86
2022/06/24 15:31:59;;;;;;;1.20;1.10;;;;;;;31.74;22.02;99897.19;5327142;33;34028;-87
2022/06/24 15:35:02;;;;;;;1.40;1.20;;;;;;;31.63;22.65;99898.69;5326539;33;35426;-86
2022/06/24 15:38:06;;;;;;;1.58;1.48;;;;;;;31.58;22.43;99898.84;5326858;33;34734;-87
2022/06/24 15:41:12;;;;;;;3.30;1.27;;;;;;;31.67;22.12;99896.84;5326758;33;34103;-86
2022/06/24 15:44:15;;;;;;;4.20;1.45;;;;;;;31.54;21.76;99889.53;5326649;33;34044;-87
2022/06/24 15:47:18;;;;;;;1.35;1.25;;;;;;;31.52;22.04;99889.03;5313452;33;33359;-87
2022/06/24 15:50:22;;;;;;;2.12;1.40;;;;;;;31.52;22.10;99892.63;5326512;33;35393;-87
2022/06/24 15:53:25;;;;;;;1.80;1.20;;;;;;;31.43;22.30;99888.25;5313414;33;32216;-86
